Terminal Aerodrome Forecast
Issued by NWS

Home | Current Version | Previous Version | Text Only | Print | Product List | Glossary On
Versions: 1 2 3 4 5 6 7 8 9 10 11 12 13
000
FTUS44 KTSA 281700
TAFRVS
TAF
KRVS 281720Z 2818/2918 19017G26KT P6SM SCT250
     FM290000 22005KT P6SM SCT250
     FM290700 34007KT P6SM SCT250
     FM291400 35012G20KT P6SM SCT015=

USA.gov is the U.S. government's official web portal to all federal, state and local government web resources and services.